createdAt,value
2022-10-03T00:00:51.272Z,0
2022-10-03T00:01:52.301Z,0
2022-10-03T00:02:52.522Z,0
2022-10-03T00:03:52.543Z,0
2022-10-03T00:04:53.810Z,0
2022-10-03T00:05:54.127Z,0
2022-10-03T00:06:55.320Z,0
2022-10-03T00:07:55.549Z,0
2022-10-03T00:08:56.112Z,0
2022-10-03T00:09:55.755Z,0
2022-10-03T00:10:56.431Z,0
2022-10-03T00:11:56.335Z,0
2022-10-03T00:12:57.631Z,0
2022-10-03T00:13:58.244Z,0
2022-10-03T00:14:59.227Z,0
2022-10-03T00:16:00.120Z,0
2022-10-03T00:17:00.598Z,0
2022-10-03T00:18:01.821Z,0
2022-10-03T00:19:02.434Z,0
2022-10-03T00:20:02.343Z,0
2022-10-03T00:21:03.242Z,0
2022-10-03T00:22:03.882Z,0
2022-10-03T00:23:04.822Z,0
2022-10-03T00:24:05.140Z,0
2022-10-03T00:25:05.831Z,0
2022-10-03T00:26:06.768Z,0
2022-10-03T00:27:06.964Z,0
2022-10-03T00:28:08.045Z,0
2022-10-03T00:29:08.349Z,0
2022-10-03T00:30:07.988Z,0
2022-10-03T00:31:09.419Z,0
2022-10-03T00:32:09.950Z,0
2022-10-03T00:33:10.865Z,0
2022-10-03T00:34:11.062Z,0
2022-10-03T00:35:12.079Z,0
2022-10-03T00:36:12.574Z,0
2022-10-03T00:37:12.490Z,0
2022-10-03T00:38:13.735Z,0
2022-10-03T00:39:14.377Z,0
2022-10-03T00:40:15.003Z,0
2022-10-03T00:41:15.935Z,0
2022-10-03T00:42:16.451Z,0
2022-10-03T00:43:16.662Z,0
2022-10-03T00:44:16.552Z,0
2022-10-03T00:45:16.848Z,0
2022-10-03T00:46:18.472Z,0
2022-10-03T00:47:19.502Z,0
2022-10-03T00:48:19.396Z,0
2022-10-03T00:49:20.317Z,0
2022-10-03T00:50:20.230Z,0
2022-10-03T00:51:20.893Z,0
2022-10-03T00:52:22.105Z,0
2022-10-03T00:53:23.313Z,0
2022-10-03T00:54:23.328Z,0
2022-10-03T00:55:24.058Z,0
2022-10-03T00:56:24.412Z,0
2022-10-03T00:57:25.613Z,0
2022-10-03T00:58:26.804Z,0
2022-10-03T00:59:26.418Z,0
2022-10-03T01:00:27.327Z,0
2022-10-03T01:01:27.620Z,0
2022-10-03T01:02:28.305Z,0
2022-10-03T01:03:28.414Z,0
2022-10-03T01:04:29.046Z,0
2022-10-03T01:05:29.736Z,0
2022-10-03T01:06:30.924Z,0
2022-10-03T01:07:30.528Z,0
2022-10-03T01:08:31.765Z,0
2022-10-03T01:09:32.674Z,0
2022-10-03T01:10:32.289Z,0
2022-10-03T01:11:32.926Z,0
2022-10-03T01:12:33.821Z,0
2022-10-03T01:13:34.017Z,0
2022-10-03T01:14:34.632Z,0
2022-10-03T01:15:35.670Z,0
2022-10-03T01:16:36.382Z,0
2022-10-03T01:17:36.724Z,0
2022-10-03T01:18:37.910Z,0
2022-10-03T01:19:38.521Z,0
2022-10-03T01:20:39.419Z,0
2022-10-03T01:21:39.887Z,0
2022-10-03T01:22:39.894Z,0
2022-10-03T01:23:40.834Z,0
2022-10-03T01:24:40.488Z,0
2022-10-03T01:25:41.216Z,0
2022-10-03T01:26:42.155Z,0
2022-10-03T01:27:42.658Z,0
2022-10-03T01:28:43.070Z,0
2022-10-03T01:29:43.411Z,0
2022-10-03T01:30:44.009Z,0
2022-10-03T01:31:45.878Z,0
2022-10-03T01:32:45.910Z,0
2022-10-03T01:33:46.832Z,0
2022-10-03T01:34:46.743Z,0
2022-10-03T01:35:47.773Z,0
2022-10-03T01:36:48.682Z,0
2022-10-03T01:37:48.916Z,0
2022-10-03T01:38:50.239Z,0
2022-10-03T01:39:49.854Z,0
2022-10-03T01:40:50.183Z,0
2022-10-03T01:41:51.243Z,0
2022-10-03T01:42:51.164Z,0
2022-10-03T01:43:52.652Z,0
2022-10-03T01:44:52.849Z,0
2022-10-03T01:45:53.261Z,0
2022-10-03T01:46:53.607Z,0
2022-10-03T01:47:53.397Z,0
2022-10-03T01:48:54.590Z,0
2022-10-03T01:49:54.523Z,0
2022-10-03T01:50:55.139Z,0
2022-10-03T01:51:56.062Z,0
2022-10-03T01:52:56.978Z,0
2022-10-03T01:53:58.311Z,0
2022-10-03T01:54:58.735Z,0
2022-10-03T01:55:58.746Z,0
2022-10-03T01:56:59.965Z,0
2022-10-03T01:58:00.165Z,0
2022-10-03T01:59:01.075Z,0
2022-10-03T02:00:02.006Z,0
2022-10-03T02:01:02.227Z,0
2022-10-03T02:02:02.565Z,0
2022-10-03T02:03:02.848Z,0
2022-10-03T02:04:04.063Z,0
2022-10-03T02:05:04.250Z,0
2022-10-03T02:06:05.244Z,0
2022-10-03T02:07:05.133Z,0
2022-10-03T02:08:05.448Z,0
2022-10-03T02:09:06.971Z,0
2022-10-03T02:10:06.888Z,0
2022-10-03T02:11:06.503Z,0
2022-10-03T02:12:07.720Z,0
2022-10-03T02:13:08.211Z,0
2022-10-03T02:14:08.098Z,0
2022-10-03T02:15:09.011Z,0
2022-10-03T02:16:09.470Z,0
2022-10-03T02:17:09.749Z,0
2022-10-03T02:18:10.248Z,0
2022-10-03T02:19:11.165Z,0
2022-10-03T02:20:10.789Z,0
2022-10-03T02:21:11.142Z,0
2022-10-03T02:22:11.763Z,0
2022-10-03T02:23:12.972Z,0
2022-10-03T02:24:13.220Z,0
2022-10-03T02:25:13.132Z,0
2022-10-03T02:26:13.558Z,0
2022-10-03T02:27:14.201Z,0
2022-10-03T02:28:15.958Z,0
2022-10-03T02:29:15.783Z,0
2022-10-03T02:30:15.710Z,0
2022-10-03T02:31:16.849Z,0
2022-10-03T02:32:16.812Z,0
2022-10-03T02:33:17.430Z,0
2022-10-03T02:34:18.329Z,0
2022-10-03T02:35:18.669Z,0
2022-10-03T02:36:19.106Z,0
2022-10-03T02:37:20.018Z,0
2022-10-03T02:38:20.912Z,0
2022-10-03T02:39:21.965Z,0
2022-10-03T02:40:22.904Z,0
2022-10-03T02:41:23.544Z,0
2022-10-03T02:42:25.057Z,0
2022-10-03T02:43:25.274Z,0
2022-10-03T02:44:25.768Z,0
2022-10-03T02:45:25.644Z,0
2022-10-03T02:46:26.396Z,0
2022-10-03T02:47:27.012Z,0
2022-10-03T02:48:42.935Z,0
2022-10-03T02:49:28.831Z,0
2022-10-03T02:50:28.722Z,0
2022-10-03T02:51:29.941Z,0
2022-10-03T02:52:30.277Z,0
2022-10-03T02:53:31.191Z,0
2022-10-03T02:54:31.700Z,0
2022-10-03T02:55:31.913Z,0
2022-10-03T02:56:32.937Z,0
2022-10-03T02:57:33.159Z,0
2022-10-03T02:58:33.352Z,0
2022-10-03T02:59:33.560Z,0
2022-10-03T03:00:33.751Z,0
2022-10-03T03:01:34.264Z,0
2022-10-03T03:02:34.894Z,0
2022-10-03T03:03:35.104Z,0
2022-10-03T03:04:35.019Z,0
2022-10-03T03:05:35.911Z,0
2022-10-03T03:06:37.180Z,0
2022-10-03T03:07:37.518Z,0
2022-10-03T03:08:38.464Z,0
2022-10-03T03:09:38.697Z,0
2022-10-03T03:10:39.613Z,0
2022-10-03T03:11:40.555Z,0
2022-10-03T03:12:47.157Z,0
2022-10-03T03:13:41.356Z,0
2022-10-03T03:14:41.672Z,0
2022-10-03T03:15:42.859Z,0
2022-10-03T03:16:42.730Z,0
2022-10-03T03:17:44.043Z,0
2022-10-03T03:18:44.530Z,0
2022-10-03T03:19:44.868Z,0
2022-10-03T03:20:45.776Z,0
2022-10-03T03:21:47.092Z,0
2022-10-03T03:22:46.002Z,0
2022-10-03T03:23:46.617Z,0
2022-10-03T03:24:47.564Z,0
2022-10-03T03:25:47.757Z,0
2022-10-03T03:26:47.918Z,0
2022-10-03T03:27:48.885Z,0
2022-10-03T03:28:53.690Z,0
2022-10-03T03:29:50.743Z,0
2022-10-03T03:30:50.797Z,0
2022-10-03T03:31:52.615Z,0
2022-10-03T03:32:52.637Z,0
2022-10-03T03:33:53.530Z,0
2022-10-03T03:34:53.426Z,0
2022-10-03T03:35:54.322Z,0
2022-10-03T03:36:55.036Z,0
2022-10-03T03:37:55.947Z,0
2022-10-03T03:38:56.585Z,0
2022-10-03T03:39:57.521Z,0
2022-10-03T03:40:57.859Z,0
2022-10-03T03:41:58.774Z,0
2022-10-03T03:42:58.688Z,0
2022-10-03T03:43:59.911Z,0
2022-10-03T03:45:00.399Z,0
2022-10-03T03:46:00.915Z,0
2022-10-03T03:47:00.526Z,0
2022-10-03T03:48:02.132Z,0
2022-10-03T03:49:01.766Z,0
2022-10-03T03:50:02.976Z,0
2022-10-03T03:51:03.318Z,0
2022-10-03T03:52:04.233Z,0
2022-10-03T03:53:05.130Z,0
2022-10-03T03:54:05.340Z,0
2022-10-03T03:55:06.001Z,0
2022-10-03T03:56:06.639Z,0
2022-10-03T03:57:06.668Z,0
2022-10-03T03:58:07.304Z,0
2022-10-03T03:59:07.829Z,0
2022-10-03T04:00:07.738Z,0
2022-10-03T04:01:08.907Z,0
2022-10-03T04:02:09.714Z,0
2022-10-03T04:03:11.050Z,0
2022-10-03T04:04:11.666Z,0
2022-10-03T04:05:12.307Z,0
2022-10-03T04:06:13.523Z,0
2022-10-03T04:07:13.867Z,0
2022-10-03T04:08:14.815Z,0
2022-10-03T04:09:15.302Z,0
2022-10-03T04:10:15.245Z,0
2022-10-03T04:11:16.157Z,0
2022-10-03T04:12:16.797Z,0
2022-10-03T04:13:17.735Z,0
2022-10-03T04:14:18.368Z,0
2022-10-03T04:15:19.563Z,0
2022-10-03T04:16:20.738Z,0
2022-10-03T04:17:21.063Z,0
2022-10-03T04:18:21.987Z,0
2022-10-03T04:19:22.183Z,0
2022-10-03T04:20:22.674Z,0
2022-10-03T04:21:25.695Z,0
2022-10-03T04:22:22.590Z,0
2022-10-03T04:23:23.789Z,0
2022-10-03T04:24:23.702Z,0
2022-10-03T04:25:24.220Z,0
2022-10-03T04:26:23.532Z,0
2022-10-03T04:27:23.669Z,0
2022-10-03T04:28:25.008Z,0
2022-10-03T04:29:26.010Z,0
2022-10-03T04:30:26.303Z,0
2022-10-03T04:31:26.786Z,0
2022-10-03T04:32:26.591Z,0
2022-10-03T04:33:27.484Z,0
2022-10-03T04:34:28.094Z,0
2022-10-03T04:35:28.287Z,0
2022-10-03T04:36:28.601Z,0
2022-10-03T04:37:29.651Z,0
2022-10-03T04:38:30.543Z,0
2022-10-03T04:39:31.452Z,0
2022-10-03T04:40:32.742Z,0
2022-10-03T04:41:32.635Z,0
2022-10-03T04:42:33.624Z,0
2022-10-03T04:43:33.839Z,0
2022-10-03T04:44:35.078Z,0
2022-10-03T04:45:34.900Z,0
2022-10-03T04:46:36.181Z,0
2022-10-03T04:47:37.171Z,0
2022-10-03T04:48:37.658Z,0
2022-10-03T04:49:38.146Z,0
2022-10-03T04:50:37.464Z,0
2022-10-03T04:51:38.862Z,0
2022-10-03T04:52:39.891Z,0
2022-10-03T04:53:40.809Z,0
2022-10-03T04:54:41.441Z,0
2022-10-03T04:55:42.662Z,0
2022-10-03T04:56:43.576Z,0
2022-10-03T04:57:43.612Z,0
2022-10-03T04:58:44.252Z,0
2022-10-03T04:59:45.189Z,0
2022-10-03T05:00:45.241Z,0
2022-10-03T05:01:47.104Z,0
2022-10-03T05:02:47.402Z,0
2022-10-03T05:03:47.018Z,0
2022-10-03T05:04:48.215Z,0
2022-10-03T05:05:49.158Z,4
2022-10-03T05:06:50.365Z,0
2022-10-03T05:07:50.781Z,0
2022-10-03T05:08:51.690Z,0
2022-10-03T05:09:52.883Z,4
2022-10-03T05:10:53.072Z,4
2022-10-03T05:11:53.818Z,0
2022-10-03T05:12:54.150Z,4
2022-10-03T05:13:55.068Z,4
2022-10-03T05:14:55.595Z,4
2022-10-03T05:15:55.506Z,8
2022-10-03T05:16:56.743Z,8
2022-10-03T05:17:56.857Z,8
2022-10-03T05:18:58.046Z,8
2022-10-03T05:19:57.677Z,8
2022-10-03T05:20:58.585Z,8
2022-10-03T05:21:59.521Z,8
2022-10-03T05:22:59.735Z,12
2022-10-03T05:24:00.357Z,12
2022-10-03T05:25:00.842Z,8
2022-10-03T05:26:16.578Z,8
2022-10-03T05:27:03.170Z,8
2022-10-03T05:28:04.440Z,8
2022-10-03T05:29:04.216Z,12
2022-10-03T05:30:05.168Z,12
2022-10-03T05:31:05.179Z,12
2022-10-03T05:32:05.444Z,12
2022-10-03T05:33:14.150Z,16
2022-10-03T05:34:06.743Z,16
2022-10-03T05:35:07.654Z,16
2022-10-03T05:36:07.287Z,16
2022-10-03T05:37:07.617Z,20
2022-10-03T05:38:09.210Z,20
2022-10-03T05:39:09.101Z,24
2022-10-03T05:40:09.451Z,28
2022-10-03T05:41:11.109Z,24
2022-10-03T05:42:33.176Z,32
2022-10-03T05:43:12.383Z,36
2022-10-03T05:44:13.001Z,40
2022-10-03T05:45:14.052Z,36
2022-10-03T05:46:13.989Z,40
2022-10-03T05:47:15.019Z,44
2022-10-03T05:48:15.769Z,48
2022-10-03T05:49:15.993Z,48
2022-10-03T05:50:24.319Z,48
2022-10-03T05:51:16.935Z,48
2022-10-03T05:52:17.555Z,48
2022-10-03T05:53:18.445Z,52
2022-10-03T05:54:19.359Z,56
2022-10-03T05:55:20.264Z,56
2022-10-03T05:56:20.775Z,56
2022-10-03T05:57:21.393Z,56
2022-10-03T05:58:21.838Z,60
2022-10-03T05:59:22.451Z,60
2022-10-03T06:00:23.681Z,68
2022-10-03T06:01:23.961Z,76
2022-10-03T06:02:24.693Z,80
2022-10-03T06:03:25.309Z,84
2022-10-03T06:04:25.910Z,84
2022-10-03T06:05:26.118Z,80
2022-10-03T06:06:26.453Z,84
2022-10-03T06:07:27.069Z,80
2022-10-03T06:08:27.525Z,76
2022-10-03T06:09:28.441Z,76
2022-10-03T06:10:28.776Z,80
2022-10-03T06:11:29.995Z,80
2022-10-03T06:12:30.212Z,84
2022-10-03T06:13:30.119Z,88
2022-10-03T06:14:30.734Z,88
2022-10-03T06:15:31.465Z,92
2022-10-03T06:16:32.243Z,92
2022-10-03T06:17:32.186Z,92
2022-10-03T06:18:32.602Z,88
2022-10-03T06:19:33.098Z,84
2022-10-03T06:20:33.402Z,80
2022-10-03T06:21:34.325Z,96
2022-10-03T06:22:34.522Z,112
2022-10-03T06:23:35.158Z,128
2022-10-03T06:24:36.058Z,136
2022-10-03T06:25:36.389Z,128
2022-10-03T06:26:37.627Z,132
2022-10-03T06:27:37.265Z,140
2022-10-03T06:28:38.546Z,164
2022-10-03T06:29:39.163Z,196
2022-10-03T06:30:40.162Z,200
2022-10-03T06:31:43.838Z,184
2022-10-03T06:32:40.488Z,176
2022-10-03T06:33:41.831Z,176
2022-10-03T06:34:43.023Z,176
2022-10-03T06:35:43.517Z,168
2022-10-03T06:36:43.730Z,168
2022-10-03T06:37:43.948Z,164
2022-10-03T06:38:44.966Z,168
2022-10-03T06:39:44.658Z,176
2022-10-03T06:40:45.293Z,184
2022-10-03T06:41:47.651Z,196
2022-10-03T06:42:47.570Z,208
2022-10-03T06:43:47.196Z,220
2022-10-03T06:44:48.414Z,224
2022-10-03T06:45:48.976Z,208
2022-10-03T06:46:49.148Z,188
2022-10-03T06:47:50.362Z,176
2022-10-03T06:48:51.355Z,164
2022-10-03T06:49:51.552Z,156
2022-10-03T06:50:51.591Z,164
2022-10-03T06:51:52.861Z,188
2022-10-03T06:52:53.058Z,212
2022-10-03T06:53:53.703Z,224
2022-10-03T06:54:54.898Z,224
2022-10-03T06:55:54.821Z,220
2022-10-03T06:57:01.165Z,220
2022-10-03T06:57:55.792Z,228
2022-10-03T06:58:56.477Z,236
2022-10-03T06:59:56.373Z,256
2022-10-03T07:00:57.730Z,280
2022-10-03T07:01:57.816Z,308
2022-10-03T07:02:58.027Z,320
2022-10-03T07:03:59.028Z,316
2022-10-03T07:04:59.647Z,304
2022-10-03T07:06:00.601Z,312
2022-10-03T07:07:01.083Z,352
2022-10-03T07:08:01.296Z,424
2022-10-03T07:09:02.008Z,496
2022-10-03T07:10:02.941Z,556
2022-10-03T07:11:02.982Z,592
2022-10-03T07:12:03.950Z,528
2022-10-03T07:13:04.032Z,424
2022-10-03T07:14:05.952Z,376
2022-10-03T07:15:05.891Z,364
2022-10-03T07:16:36.430Z,336
2022-10-03T07:17:07.109Z,332
2022-10-03T07:18:06.634Z,320
2022-10-03T07:19:08.223Z,320
2022-10-03T07:20:08.250Z,332
2022-10-03T07:21:10.664Z,332
2022-10-03T07:22:09.380Z,320
2022-10-03T07:23:09.296Z,308
2022-10-03T07:24:09.932Z,312
2022-10-03T07:25:10.845Z,324
2022-10-03T07:26:10.754Z,332
2022-10-03T07:27:11.987Z,344
2022-10-03T07:28:12.995Z,360
2022-10-03T07:29:12.817Z,400
2022-10-03T07:30:14.009Z,460
2022-10-03T07:31:15.184Z,520
2022-10-03T07:32:15.450Z,592
2022-10-03T07:33:15.070Z,552
2022-10-03T07:34:16.271Z,528
2022-10-03T07:35:17.167Z,504
2022-10-03T07:36:18.093Z,512
2022-10-03T07:37:19.027Z,520
2022-10-03T07:38:19.627Z,512
2022-10-03T07:39:20.626Z,492
2022-10-03T07:40:21.270Z,480
2022-10-03T07:41:21.484Z,496
2022-10-03T07:42:22.437Z,528
2022-10-03T07:43:22.618Z,500
2022-10-03T07:44:22.958Z,448
2022-10-03T07:45:23.279Z,408
2022-10-03T07:46:25.125Z,420
2022-10-03T07:47:25.623Z,456
2022-10-03T07:48:25.517Z,472
2022-10-03T07:49:29.649Z,468
2022-10-03T07:50:26.572Z,448
2022-10-03T07:51:26.783Z,428
2022-10-03T07:52:27.785Z,396
2022-10-03T07:53:27.722Z,348
2022-10-03T07:54:28.935Z,324
2022-10-03T07:55:29.552Z,336
2022-10-03T07:56:30.047Z,356
2022-10-03T07:57:29.992Z,364
2022-10-03T07:58:30.186Z,356
2022-10-03T07:59:30.630Z,352
2022-10-03T08:00:31.002Z,372
2022-10-03T08:01:32.732Z,404
2022-10-03T08:02:33.944Z,428
2022-10-03T08:03:34.492Z,440
2022-10-03T08:04:35.527Z,428
2022-10-03T08:05:35.572Z,436
2022-10-03T08:06:37.489Z,440
2022-10-03T08:07:37.100Z,420
2022-10-03T08:08:38.294Z,404
2022-10-03T08:09:38.586Z,412
2022-10-03T08:10:45.980Z,408
2022-10-03T08:11:39.788Z,412
2022-10-03T08:12:40.194Z,416
2022-10-03T08:13:39.806Z,416
2022-10-03T08:14:40.409Z,428
2022-10-03T08:15:41.454Z,448
2022-10-03T08:16:41.221Z,440
2022-10-03T08:17:42.460Z,416
2022-10-03T08:18:42.682Z,420
2022-10-03T08:19:42.406Z,452
2022-10-03T08:20:44.325Z,472
2022-10-03T08:21:44.974Z,480
2022-10-03T08:22:44.894Z,520
2022-10-03T08:23:45.110Z,588
2022-10-03T08:24:46.050Z,636
2022-10-03T08:25:46.248Z,672
2022-10-03T08:26:47.445Z,728
2022-10-03T08:27:47.390Z,764
2022-10-03T08:28:48.494Z,756
2022-10-03T08:29:48.467Z,732
2022-10-03T08:30:49.170Z,696
2022-10-03T08:31:50.958Z,660
2022-10-03T08:32:54.697Z,624
2022-10-03T08:33:51.189Z,604
2022-10-03T08:34:51.536Z,576
2022-10-03T08:35:52.152Z,548
2022-10-03T08:36:53.341Z,528
2022-10-03T08:37:53.533Z,536
2022-10-03T08:38:54.154Z,552
2022-10-03T08:39:54.888Z,568
2022-10-03T08:40:55.232Z,568
2022-10-03T08:41:55.871Z,568
2022-10-03T08:42:57.476Z,600
2022-10-03T08:43:57.675Z,664
2022-10-03T08:44:57.729Z,736
2022-10-03T08:45:58.996Z,804
2022-10-03T08:46:59.575Z,792
2022-10-03T08:47:59.832Z,772
2022-10-03T08:48:59.739Z,792
2022-10-03T08:50:05.221Z,756
2022-10-03T08:51:01.081Z,728
2022-10-03T08:52:02.022Z,760
2022-10-03T08:53:02.512Z,808
2022-10-03T08:54:02.711Z,828
2022-10-03T08:55:02.354Z,812
2022-10-03T08:56:03.567Z,752
2022-10-03T08:57:03.481Z,640
2022-10-03T08:58:04.705Z,564
2022-10-03T08:59:04.305Z,540
2022-10-03T09:00:05.597Z,512
2022-10-03T09:01:05.787Z,492
2022-10-03T09:02:06.546Z,488
2022-10-03T09:03:48.788Z,492
2022-10-03T09:04:05.886Z,492
2022-10-03T09:05:07.110Z,476
2022-10-03T09:06:07.730Z,472
2022-10-03T09:07:38.334Z,480
2022-10-03T09:08:09.233Z,484
2022-10-03T09:09:09.552Z,488
2022-10-03T09:10:10.843Z,512
2022-10-03T09:11:10.515Z,524
2022-10-03T09:12:11.434Z,480
2022-10-03T09:13:12.695Z,444
2022-10-03T09:14:13.317Z,436
2022-10-03T09:15:13.646Z,484
2022-10-03T09:16:18.482Z,568
2022-10-03T09:17:14.387Z,600
2022-10-03T09:18:15.027Z,600
2022-10-03T09:19:14.959Z,572
2022-10-03T09:20:15.064Z,568
2022-10-03T09:21:16.259Z,616
2022-10-03T09:22:16.587Z,692
2022-10-03T09:23:17.519Z,800
2022-10-03T09:24:18.158Z,904
2022-10-03T09:25:19.078Z,920
2022-10-03T09:26:18.995Z,836
2022-10-03T09:27:19.329Z,676
2022-10-03T09:28:24.594Z,536
2022-10-03T09:29:21.558Z,468
2022-10-03T09:30:22.687Z,432
2022-10-03T09:31:22.594Z,452
2022-10-03T09:32:23.604Z,488
2022-10-03T09:33:23.609Z,480
2022-10-03T09:34:25.133Z,436
2022-10-03T09:35:25.058Z,392
2022-10-03T09:36:26.255Z,380
2022-10-03T09:37:26.176Z,384
2022-10-03T09:38:26.368Z,400
2022-10-03T09:39:26.988Z,424
2022-10-03T09:40:28.813Z,496
2022-10-03T09:41:29.005Z,580
2022-10-03T09:42:29.693Z,632
2022-10-03T09:43:30.911Z,700
2022-10-03T09:44:30.808Z,772
2022-10-03T09:45:30.711Z,780
2022-10-03T09:46:32.064Z,780
2022-10-03T09:47:32.049Z,680
2022-10-03T09:48:32.963Z,624
2022-10-03T09:49:33.644Z,720
2022-10-03T09:50:33.613Z,632
2022-10-03T09:51:34.827Z,600
2022-10-03T09:52:35.115Z,588
2022-10-03T09:53:35.032Z,568
2022-10-03T09:54:36.224Z,536
2022-10-03T09:55:39.487Z,484
2022-10-03T09:56:38.048Z,456
2022-10-03T09:57:38.071Z,448
2022-10-03T09:58:38.584Z,460
2022-10-03T09:59:38.481Z,484
2022-10-03T10:00:39.711Z,520
2022-10-03T10:01:40.591Z,564
2022-10-03T10:02:40.982Z,620
2022-10-03T10:03:41.127Z,684
2022-10-03T10:05:05.139Z,760
2022-10-03T10:05:42.056Z,824
2022-10-03T10:06:43.969Z,940
2022-10-03T10:07:43.603Z,1096
2022-10-03T10:08:44.218Z,1132
2022-10-03T10:09:44.434Z,1084
2022-10-03T10:10:45.412Z,1004
2022-10-03T10:11:46.745Z,1008
2022-10-03T10:12:46.366Z,1148
2022-10-03T10:14:14.583Z,1532
2022-10-03T10:14:48.503Z,1632
2022-10-03T10:15:49.048Z,2068
2022-10-03T10:16:54.989Z,2152
2022-10-03T10:17:50.652Z,1940
2022-10-03T10:18:50.598Z,2228
2022-10-03T10:19:51.561Z,2404
2022-10-03T10:20:52.212Z,9820
2022-10-03T10:21:52.136Z,9796
2022-10-03T10:22:53.632Z,8168
2022-10-03T10:23:53.251Z,13716
2022-10-03T10:24:53.875Z,7980
2022-10-03T10:25:54.222Z,12136
2022-10-03T10:26:56.192Z,5064
2022-10-03T10:27:56.360Z,3176
2022-10-03T10:28:57.631Z,12440
2022-10-03T10:29:57.864Z,13636
2022-10-03T10:30:58.359Z,13020
2022-10-03T10:31:59.285Z,12840
2022-10-03T10:32:58.912Z,12660
2022-10-03T10:34:00.138Z,12904
2022-10-03T10:35:00.351Z,10284
2022-10-03T10:36:00.585Z,9784
2022-10-03T10:37:00.513Z,11308
2022-10-03T10:38:02.016Z,6948
2022-10-03T10:39:01.935Z,6292
2022-10-03T10:40:02.842Z,1940
2022-10-03T10:41:08.998Z,1484
2022-10-03T10:42:04.922Z,1468
2022-10-03T10:43:05.122Z,1544
2022-10-03T10:44:06.181Z,1252
2022-10-03T10:45:07.147Z,1224
2022-10-03T10:46:07.638Z,1128
2022-10-03T10:47:08.327Z,1048
2022-10-03T10:48:08.193Z,1124
2022-10-03T10:49:14.840Z,1268
2022-10-03T10:50:10.347Z,1668
2022-10-03T10:51:10.977Z,2456
2022-10-03T10:52:10.963Z,3088
2022-10-03T10:53:11.619Z,2088
2022-10-03T10:54:12.544Z,2396
2022-10-03T10:55:12.495Z,3444
2022-10-03T10:56:13.404Z,3648
2022-10-03T10:57:13.925Z,3048
2022-10-03T10:58:14.120Z,2548
2022-10-03T10:59:14.628Z,3520
2022-10-03T11:00:15.062Z,4276
2022-10-03T11:01:16.658Z,5280
2022-10-03T11:02:16.299Z,2772
2022-10-03T11:03:17.245Z,2944
2022-10-03T11:04:18.105Z,2900
2022-10-03T11:05:18.389Z,2604
2022-10-03T11:06:19.627Z,3492
2022-10-03T11:07:20.230Z,2652
2022-10-03T11:08:20.856Z,2384
2022-10-03T11:09:21.781Z,2336
2022-10-03T11:10:21.700Z,4008
2022-10-03T11:11:22.426Z,2520
2022-10-03T11:12:23.058Z,2380
2022-10-03T11:13:24.553Z,2420
2022-10-03T11:14:24.924Z,2264
2022-10-03T11:15:26.277Z,2332
2022-10-03T11:16:26.843Z,2088
2022-10-03T11:17:26.316Z,1796
2022-10-03T11:18:26.919Z,1772
2022-10-03T11:19:27.237Z,1692
2022-10-03T11:20:28.451Z,1728
2022-10-03T11:21:28.793Z,1716
2022-10-03T11:22:29.297Z,1584
2022-10-03T11:23:29.213Z,1540
2022-10-03T11:24:29.559Z,1468
2022-10-03T11:25:29.603Z,1468
2022-10-03T11:26:30.204Z,1548
2022-10-03T11:27:31.102Z,1696
2022-10-03T11:28:36.759Z,1828
2022-10-03T11:29:32.484Z,2328
2022-10-03T11:30:33.701Z,3020
2022-10-03T11:31:34.420Z,2356
2022-10-03T11:32:35.443Z,1928
2022-10-03T11:33:35.793Z,2408
2022-10-03T11:34:36.210Z,2596
2022-10-03T11:35:40.870Z,2956
2022-10-03T11:36:38.337Z,2720
2022-10-03T11:37:38.812Z,2576
2022-10-03T11:38:40.011Z,2520
2022-10-03T11:39:40.208Z,3476
2022-10-03T11:40:41.133Z,3184
2022-10-03T11:41:41.222Z,3148
2022-10-03T11:42:42.136Z,2684
2022-10-03T11:43:42.820Z,2640
2022-10-03T11:44:44.116Z,3124
2022-10-03T11:45:43.554Z,2680
2022-10-03T11:46:44.984Z,2712
2022-10-03T11:47:45.454Z,2488
2022-10-03T11:48:45.696Z,2376
2022-10-03T11:49:45.597Z,2380
2022-10-03T11:50:46.516Z,1936
2022-10-03T11:51:50.362Z,1648
2022-10-03T11:52:47.767Z,1792
2022-10-03T11:53:48.113Z,2052
2022-10-03T11:54:48.678Z,2248
2022-10-03T11:55:49.583Z,2708
2022-10-03T11:56:50.968Z,2372
2022-10-03T11:57:51.162Z,2388
2022-10-03T11:58:52.357Z,2296
2022-10-03T11:59:53.290Z,1988
2022-10-03T12:00:53.230Z,2228
2022-10-03T12:01:57.364Z,2252
2022-10-03T12:02:55.015Z,4752
2022-10-03T12:03:55.618Z,2008
2022-10-03T12:04:55.839Z,1640
2022-10-03T12:05:56.172Z,5516
2022-10-03T12:06:57.555Z,5312
2022-10-03T12:08:04.185Z,6624
2022-10-03T12:08:58.380Z,6768
2022-10-03T12:09:58.706Z,6940
2022-10-03T12:10:59.624Z,7544
2022-10-03T12:11:59.603Z,7012
2022-10-03T12:13:00.229Z,7916
2022-10-03T12:14:01.451Z,8484
2022-10-03T12:15:02.186Z,8368
2022-10-03T12:16:02.204Z,7460
2022-10-03T12:17:03.820Z,8600
2022-10-03T12:18:03.751Z,8068
2022-10-03T12:19:03.673Z,7940
2022-10-03T12:20:04.879Z,8276
2022-10-03T12:21:04.979Z,3116
2022-10-03T12:22:06.510Z,2684
2022-10-03T12:23:06.445Z,2828
2022-10-03T12:24:07.048Z,2176
2022-10-03T12:25:07.970Z,1816
2022-10-03T12:26:08.582Z,1692
2022-10-03T12:27:08.650Z,1808
2022-10-03T12:28:10.187Z,1732
2022-10-03T12:29:10.222Z,1940
2022-10-03T12:30:11.467Z,2696
2022-10-03T12:31:13.248Z,4520
2022-10-03T12:32:12.961Z,2500
2022-10-03T12:33:12.624Z,2492
2022-10-03T12:34:13.826Z,2708
2022-10-03T12:35:14.034Z,9184
2022-10-03T12:36:14.982Z,2820
2022-10-03T12:37:16.242Z,5104
2022-10-03T12:38:16.454Z,8396
2022-10-03T12:39:16.676Z,2932
2022-10-03T12:40:17.308Z,9332
2022-10-03T12:41:17.944Z,6436
2022-10-03T12:42:19.311Z,8080
2022-10-03T12:43:19.215Z,3448
2022-10-03T12:44:20.141Z,3452
2022-10-03T12:45:21.640Z,2600
2022-10-03T12:46:22.216Z,6544
2022-10-03T12:47:56.823Z,3840
2022-10-03T12:48:22.805Z,3040
2022-10-03T12:49:23.708Z,2868
2022-10-03T12:50:24.051Z,3176
2022-10-03T12:51:24.975Z,5100
2022-10-03T12:52:25.827Z,1744
2022-10-03T12:53:25.756Z,2332
2022-10-03T12:54:32.306Z,2216
2022-10-03T12:55:27.231Z,2196
2022-10-03T12:56:28.133Z,1676
2022-10-03T12:57:28.491Z,1076
2022-10-03T12:58:29.412Z,2912
2022-10-03T12:59:30.028Z,5996
2022-10-03T13:00:30.971Z,4120
2022-10-03T13:01:32.302Z,8420
2022-10-03T13:02:33.010Z,8412
2022-10-03T13:03:33.108Z,8540
2022-10-03T13:04:33.604Z,8620
2022-10-03T13:05:33.502Z,6452
2022-10-03T13:07:09.793Z,8564
2022-10-03T13:07:34.788Z,8464
2022-10-03T13:08:34.701Z,8640
2022-10-03T13:09:35.609Z,8704
2022-10-03T13:10:35.809Z,3120
2022-10-03T13:11:35.739Z,1392
2022-10-03T13:12:39.088Z,3412
2022-10-03T13:13:36.725Z,1776
2022-10-03T13:14:38.349Z,1128
2022-10-03T13:15:38.781Z,1064
2022-10-03T13:16:39.090Z,1060
2022-10-03T13:17:39.424Z,1128
2022-10-03T13:18:40.051Z,1136
2022-10-03T13:19:41.277Z,964
2022-10-03T13:20:42.202Z,920
2022-10-03T13:22:07.717Z,712
2022-10-03T13:22:56.354Z,664
2022-10-03T13:23:56.573Z,576
2022-10-03T13:24:56.793Z,512
2022-10-03T13:25:57.293Z,496
2022-10-03T13:26:57.886Z,520
2022-10-03T13:27:58.603Z,536
2022-10-03T13:28:59.597Z,584
2022-10-03T13:29:59.945Z,628
2022-10-03T13:31:02.102Z,636
2022-10-03T13:32:02.498Z,624
2022-10-03T13:33:02.926Z,544
2022-10-03T13:34:03.267Z,552
2022-10-03T13:35:04.187Z,492
2022-10-03T13:36:05.144Z,448
2022-10-03T13:37:05.464Z,504
2022-10-03T13:38:06.693Z,536
2022-10-03T13:39:07.183Z,556
2022-10-03T13:40:08.222Z,624
2022-10-03T13:41:08.148Z,748
2022-10-03T13:42:08.760Z,748
2022-10-03T13:43:09.509Z,716
2022-10-03T13:44:10.450Z,676
2022-10-03T13:45:10.798Z,620
2022-10-03T13:46:12.475Z,568
2022-10-03T13:47:12.193Z,708
2022-10-03T13:48:12.831Z,1560
2022-10-03T13:49:13.729Z,936
2022-10-03T13:50:14.645Z,868
2022-10-03T13:51:13.986Z,968
2022-10-03T13:52:15.614Z,992
2022-10-03T13:53:16.952Z,956
2022-10-03T13:54:17.174Z,892
2022-10-03T13:55:17.105Z,876
2022-10-03T13:56:17.772Z,848
2022-10-03T13:57:18.401Z,820
2022-10-03T13:58:18.317Z,828
2022-10-03T13:59:19.809Z,812
2022-10-03T14:00:20.000Z,812
2022-10-03T14:01:21.165Z,892
2022-10-03T14:02:21.996Z,1720
2022-10-03T14:03:21.573Z,1100
2022-10-03T14:04:22.218Z,848
2022-10-03T14:05:23.131Z,1116
2022-10-03T14:06:23.509Z,1188
2022-10-03T14:07:24.473Z,1172
2022-10-03T14:08:26.011Z,1124
2022-10-03T14:09:26.326Z,1028
2022-10-03T14:10:26.673Z,936
2022-10-03T14:11:27.644Z,852
2022-10-03T14:13:01.569Z,576